Milos — 8PAL6 — position and weather

sailwx.info

Track history (hours):
 
Tides and Currents Weather Stations Pressure Air Temp Water Temp Dewpoint Dewpoint Depression Visibility Wind Speed Wind Dir Waves Ship Positions

Milos

Last reported at 2018-Jan-11 18:37 UTC. Time now 2018-Jan-19 07:59 UTC.
Position N 39°24' W 009°51'.

Length 154 m; draft 8.3 m.

Type: Cargo ship. MMSI: 314429000.

Date/timePositionNaut miles runAvg speedWind from/ knotsBaromVisibWave heightAir tempDewpointWater temp
2018-Jan-11 18:37N 39°24' W 009°51'2 9.4
2018-Jan-11 18:26N 39°23' W 009°51'4 9.7
2018-Jan-11 18:00N 39°19' W 009°51'5 9.7
2018-Jan-11 17:30N 39°14' W 009°52'5 9.4
2018-Jan-11 17:00N 39°09' W 009°51'5 9.3
2018-Jan-11 16:30N 39°04' W 009°51'5 9.4
2018-Jan-11 16:00N 38°60' W 009°51'5 9.6
2018-Jan-11 15:31N 38°55' W 009°51'5 9.3
2018-Jan-11 15:00N 38°50' W 009°52'5 9.3
2018-Jan-11 14:30N 38°46' W 009°52'5 9.2
2018-Jan-11 14:00N 38°41' W 009°52'4 8.6
2018-Jan-11 13:31N 38°37' W 009°51'4 8.8
2018-Jan-11 13:00N 38°32' W 009°49'4 8.9
2018-Jan-11 12:30N 38°28' W 009°48'5 9.0
2018-Jan-11 12:00N 38°24' W 009°47'6 8.8
2018-Jan-11 11:18N 38°18' W 009°45'3 8.6
2018-Jan-11 10:58N 38°15' W 009°44'5 8.8
2018-Jan-11 10:26N 38°10' W 009°43'4 8.8
2018-Jan-11 09:58N 38°06' W 009°42'6 8.7
2018-Jan-11 09:19N 38°01' W 009°40'11 8.5
2018-Jan-11 08:04N 37°51' W 009°37'1 8.4
2018-Jan-11 07:59N 37°50' W 009°37'5 8.3
2018-Jan-11 07:22N 37°45' W 009°36'4 8.5
2018-Jan-11 06:53N 37°41' W 009°35'3 8.5
2018-Jan-11 06:28N 37°37' W 009°34'205 9.1
2018-Jan-10 08:02N 35°57' W 005°51'210.0
2018-Jan-10 07:50N 35°57' W 005°48'310.0
2018-Jan-10 07:30N 35°57' W 005°44'510.0
2018-Jan-10 07:01N 35°57' W 005°38'5 9.8
2018-Jan-10 06:30N 35°58' W 005°32'5 9.4
2018-Jan-10 06:00N 35°59' W 005°27'4 8.7
2018-Jan-10 05:31N 36°01' W 005°22'4 8.7
2018-Jan-10 05:01N 36°02' W 005°17'5 9.1
2018-Jan-10 04:30N 36°03' W 005°11'  
2018-Jan-07 11:46N 37°38' E 009°32'311.1
2018-Jan-07 11:30N 37°38' E 009°36'610.8
2018-Jan-07 10:54N 37°39' E 009°44'1310.5
2018-Jan-07 09:39N 37°39' E 010°01'11811.1
2018-Jan-06 23:05N 37°03' E 012°22'612.5
2018-Jan-06 22:34N 37°01' E 012°29'112.5
2018-Jan-06 22:30N 37°01' E 012°30'612.0
2018-Jan-06 22:00N 36°59' E 012°37'611.8
2018-Jan-06 21:29N 36°57' E 012°45'612.1
2018-Jan-06 21:00N 36°55' E 012°51'612.2
2018-Jan-06 20:30N 36°53' E 012°59'612.3
2018-Jan-06 20:00N 36°51' E 013°06'612.1
2018-Jan-06 19:30N 36°49' E 013°13'711.9
2018-Jan-06 18:56N 36°47' E 013°21'511.9
2018-Jan-06 18:31N 36°45' E 013°27'612.1
2018-Jan-06 18:01N 36°43' E 013°34'612.1
2018-Jan-06 17:30N 36°41' E 013°41'612.1
2018-Jan-06 17:00N 36°39' E 013°48'612.3
2018-Jan-06 16:30N 36°37' E 013°56'612.0
2018-Jan-06 16:00N 36°35' E 014°03'711.7
2018-Jan-06 15:27N 36°33' E 014°11'811.7
2018-Jan-06 14:44N 36°30' E 014°21'311.7
2018-Jan-06 14:30N 36°29' E 014°24'611.9
2018-Jan-06 14:00N 36°27' E 014°31'611.8
2018-Jan-06 13:30N 36°26' E 014°38'611.7
2018-Jan-06 13:00N 36°26' E 014°45'611.6
2018-Jan-06 12:29N 36°26' E 014°52'611.5
2018-Jan-06 11:59N 36°26' E 014°60'811.6
2018-Jan-06 11:17N 36°26' E 015°10'41110.7
2018-Jan-04 20:50N 37°17' E 023°39'912.5
2018-Jan-04 20:09N 37°25' E 023°41'612.7
2018-Jan-04 19:39N 37°31' E 023°42'312.8
2018-Jan-04 19:25N 37°34' E 023°42'512.4
2018-Jan-04 19:00N 37°39' E 023°42'612.4
2018-Jan-04 18:31N 37°45' E 023°39'510.9
2018-Jan-04 18:01N 37°50' E 023°36'3 6.6
2018-Jan-04 17:31N 37°52' E 023°33'0 0.1
2018-Jan-04 16:58N 37°52' E 023°33'0 0.0
2018-Jan-04 16:28N 37°52' E 023°33'0 0.0
2018-Jan-04 16:01N 37°52' E 023°33'0 0.0
2018-Jan-04 15:31N 37°52' E 023°33'0 0.0
2018-Jan-04 14:58N 37°52' E 023°33'0 0.1
2018-Jan-04 14:28N 37°52' E 023°33'0 0.1
2018-Jan-04 13:58N 37°52' E 023°33'0 0.0
2018-Jan-04 13:28N 37°52' E 023°33'0 0.0
2018-Jan-04 13:01N 37°52' E 023°33'0 0.0
2018-Jan-04 12:28N 37°52' E 023°33'0 0.1
2018-Jan-04 11:58N 37°52' E 023°33'0 0.1
2018-Jan-04 11:31N 37°52' E 023°33'0 0.0
2018-Jan-04 10:58N 37°52' E 023°33'0 0.0
2018-Jan-04 10:30N 37°52' E 023°33'0 0.0
2018-Jan-04 09:58N 37°52' E 023°33'0 0.0
2018-Jan-04 09:28N 37°52' E 023°33'0 0.0
2018-Jan-04 08:58N 37°52' E 023°33'0 0.0
2018-Jan-04 08:30N 37°52' E 023°33'0 0.0
2018-Jan-04 07:58N 37°52' E 023°33'0 0.1
2018-Jan-04 07:28N 37°53' E 023°33'0 0.1
2018-Jan-04 06:57N 37°53' E 023°33'0 0.1
2018-Jan-04 06:28N 37°53' E 023°33'0 0.1
2018-Jan-04 05:58N 37°53' E 023°33'0 0.2
2018-Jan-04 05:28N 37°53' E 023°33'0 0.1
2018-Jan-04 05:00N 37°53' E 023°33'0 0.0
2018-Jan-04 04:28N 37°53' E 023°33'0 0.0
2018-Jan-04 04:01N 37°53' E 023°33'0 0.0
2018-Jan-04 03:31N 37°53' E 023°33'0 0.1
2018-Jan-04 02:58N 37°53' E 023°33'0 0.0
2018-Jan-04 02:28N 37°53' E 023°33'0 0.1
2018-Jan-04 02:00N 37°53' E 023°33'0 0.0
2018-Jan-04 01:28N 37°53' E 023°33'0 0.1
2018-Jan-04 01:00N 37°53' E 023°33'0 0.1
2018-Jan-04 00:27N 37°53' E 023°33'0 0.2
2018-Jan-03 23:57N 37°52' E 023°33'0 0.1
2018-Jan-03 23:31N 37°52' E 023°33'0 0.1
2018-Jan-03 23:01N 37°53' E 023°33'0 0.0
2018-Jan-03 22:28N 37°53' E 023°33'0 0.0
2018-Jan-03 21:58N 37°53' E 023°33'0 0.0
2018-Jan-03 21:31N 37°53' E 023°33'0 0.0
2018-Jan-03 20:58N 37°53' E 023°33'0 0.0
2018-Jan-03 20:28N 37°53' E 023°33'0 0.0
2018-Jan-03 19:57N 37°53' E 023°33'0 0.0
2018-Jan-03 19:30N 37°53' E 023°33'0 0.0
2018-Jan-03 19:00N 37°53' E 023°33'0 0.1
2018-Jan-03 18:30N 37°53' E 023°33'0 0.0
2018-Jan-03 18:00N 37°53' E 023°33'0 0.0
2018-Jan-03 17:30N 37°53' E 023°33'0 0.0
2018-Jan-03 17:00N 37°53' E 023°33'0 0.0
2018-Jan-03 16:30N 37°53' E 023°33'0 0.0
2018-Jan-03 16:00N 37°52' E 023°33'0 0.0
2018-Jan-03 15:28N 37°52' E 023°33'0 0.0
2018-Jan-03 15:01N 37°52' E 023°33'0 0.1
2018-Jan-03 14:30N 37°52' E 023°33'0 0.0
2018-Jan-03 14:00N 37°52' E 023°33'0 0.1
2018-Jan-03 13:30N 37°52' E 023°33'0 0.1
2018-Jan-03 13:00N 37°52' E 023°33'2 3.0
2018-Jan-03 12:30N 37°52' E 023°35'4 8.9
2018-Jan-03 12:00N 37°50' E 023°40'611.2
2018-Jan-03 11:30N 37°45' E 023°43'611.5
2018-Jan-03 11:00N 37°40' E 023°47'711.5
2018-Jan-03 10:22N 37°37' E 023°55'411.7
2018-Jan-03 10:01N 37°37' E 024°01'612.1
2018-Jan-03 09:30N 37°38' E 024°08'812.4
2018-Jan-03 08:50N 37°44' E 024°16'711.9
2018-Jan-03 08:14N 37°48' E 024°22'511.9
2018-Jan-03 07:48N 37°52' E 024°27'412.1
2018-Jan-03 07:30N 37°54' E 024°31'  
Track history (hours):
 
Tides and Currents Weather Stations Pressure Air Temp Water Temp Dewpoint Dewpoint Depression Visibility Wind Speed Wind Dir Waves Ship Positions

Milos

Last reported at 2018-Jan-11 18:37 UTC. Time now 2018-Jan-19 07:59 UTC.
Position N 39°24' W 009°51'.

Length 154 m; draft 8.3 m.

Type: Cargo ship. MMSI: 314429000.

Date/timePositionNaut miles runAvg speedWind from/ knotsBaromVisibWave heightAir tempDewpointWater temp
2018-Jan-11 18:37N 39°24' W 009°51'2 9.4
2018-Jan-11 18:26N 39°23' W 009°51'4 9.7
2018-Jan-11 18:00N 39°19' W 009°51'5 9.7
2018-Jan-11 17:30N 39°14' W 009°52'5 9.4
2018-Jan-11 17:00N 39°09' W 009°51'5 9.3
2018-Jan-11 16:30N 39°04' W 009°51'5 9.4
2018-Jan-11 16:00N 38°60' W 009°51'5 9.6
2018-Jan-11 15:31N 38°55' W 009°51'5 9.3
2018-Jan-11 15:00N 38°50' W 009°52'5 9.3
2018-Jan-11 14:30N 38°46' W 009°52'5 9.2
2018-Jan-11 14:00N 38°41' W 009°52'4 8.6
2018-Jan-11 13:31N 38°37' W 009°51'4 8.8
2018-Jan-11 13:00N 38°32' W 009°49'4 8.9
2018-Jan-11 12:30N 38°28' W 009°48'5 9.0
2018-Jan-11 12:00N 38°24' W 009°47'6 8.8
2018-Jan-11 11:18N 38°18' W 009°45'3 8.6
2018-Jan-11 10:58N 38°15' W 009°44'5 8.8
2018-Jan-11 10:26N 38°10' W 009°43'4 8.8
2018-Jan-11 09:58N 38°06' W 009°42'6 8.7
2018-Jan-11 09:19N 38°01' W 009°40'11 8.5
2018-Jan-11 08:04N 37°51' W 009°37'1 8.4
2018-Jan-11 07:59N 37°50' W 009°37'5 8.3
2018-Jan-11 07:22N 37°45' W 009°36'4 8.5
2018-Jan-11 06:53N 37°41' W 009°35'3 8.5
2018-Jan-11 06:28N 37°37' W 009°34'205 9.1
2018-Jan-10 08:02N 35°57' W 005°51'210.0
2018-Jan-10 07:50N 35°57' W 005°48'310.0
2018-Jan-10 07:30N 35°57' W 005°44'510.0
2018-Jan-10 07:01N 35°57' W 005°38'5 9.8
2018-Jan-10 06:30N 35°58' W 005°32'5 9.4
2018-Jan-10 06:00N 35°59' W 005°27'4 8.7
2018-Jan-10 05:31N 36°01' W 005°22'4 8.7
2018-Jan-10 05:01N 36°02' W 005°17'5 9.1
2018-Jan-10 04:30N 36°03' W 005°11'  
2018-Jan-07 11:46N 37°38' E 009°32'311.1
2018-Jan-07 11:30N 37°38' E 009°36'610.8
2018-Jan-07 10:54N 37°39' E 009°44'1310.5
2018-Jan-07 09:39N 37°39' E 010°01'11811.1
2018-Jan-06 23:05N 37°03' E 012°22'612.5
2018-Jan-06 22:34N 37°01' E 012°29'112.5
2018-Jan-06 22:30N 37°01' E 012°30'612.0
2018-Jan-06 22:00N 36°59' E 012°37'611.8
2018-Jan-06 21:29N 36°57' E 012°45'612.1
2018-Jan-06 21:00N 36°55' E 012°51'612.2
2018-Jan-06 20:30N 36°53' E 012°59'612.3
2018-Jan-06 20:00N 36°51' E 013°06'612.1
2018-Jan-06 19:30N 36°49' E 013°13'711.9
2018-Jan-06 18:56N 36°47' E 013°21'511.9
2018-Jan-06 18:31N 36°45' E 013°27'612.1
2018-Jan-06 18:01N 36°43' E 013°34'612.1
2018-Jan-06 17:30N 36°41' E 013°41'612.1
2018-Jan-06 17:00N 36°39' E 013°48'612.3
2018-Jan-06 16:30N 36°37' E 013°56'612.0
2018-Jan-06 16:00N 36°35' E 014°03'711.7
2018-Jan-06 15:27N 36°33' E 014°11'811.7
2018-Jan-06 14:44N 36°30' E 014°21'311.7
2018-Jan-06 14:30N 36°29' E 014°24'611.9
2018-Jan-06 14:00N 36°27' E 014°31'611.8
2018-Jan-06 13:30N 36°26' E 014°38'611.7
2018-Jan-06 13:00N 36°26' E 014°45'611.6
2018-Jan-06 12:29N 36°26' E 014°52'611.5
2018-Jan-06 11:59N 36°26' E 014°60'811.6
2018-Jan-06 11:17N 36°26' E 015°10'41110.7
2018-Jan-04 20:50N 37°17' E 023°39'912.5
2018-Jan-04 20:09N 37°25' E 023°41'612.7
2018-Jan-04 19:39N 37°31' E 023°42'312.8
2018-Jan-04 19:25N 37°34' E 023°42'512.4
2018-Jan-04 19:00N 37°39' E 023°42'612.4
2018-Jan-04 18:31N 37°45' E 023°39'510.9
2018-Jan-04 18:01N 37°50' E 023°36'3 6.6
2018-Jan-04 17:31N 37°52' E 023°33'0 0.1
2018-Jan-04 16:58N 37°52' E 023°33'0 0.0
2018-Jan-04 16:28N 37°52' E 023°33'0 0.0
2018-Jan-04 16:01N 37°52' E 023°33'0 0.0
2018-Jan-04 15:31N 37°52' E 023°33'0 0.0
2018-Jan-04 14:58N 37°52' E 023°33'0 0.1
2018-Jan-04 14:28N 37°52' E 023°33'0 0.1
2018-Jan-04 13:58N 37°52' E 023°33'0 0.0
2018-Jan-04 13:28N 37°52' E 023°33'0 0.0
2018-Jan-04 13:01N 37°52' E 023°33'0 0.0
2018-Jan-04 12:28N 37°52' E 023°33'0 0.1
2018-Jan-04 11:58N 37°52' E 023°33'0 0.1
2018-Jan-04 11:31N 37°52' E 023°33'0 0.0
2018-Jan-04 10:58N 37°52' E 023°33'0 0.0
2018-Jan-04 10:30N 37°52' E 023°33'0 0.0
2018-Jan-04 09:58N 37°52' E 023°33'0 0.0
2018-Jan-04 09:28N 37°52' E 023°33'0 0.0
2018-Jan-04 08:58N 37°52' E 023°33'0 0.0
2018-Jan-04 08:30N 37°52' E 023°33'0 0.0
2018-Jan-04 07:58N 37°52' E 023°33'0 0.1
2018-Jan-04 07:28N 37°53' E 023°33'0 0.1
2018-Jan-04 06:57N 37°53' E 023°33'0 0.1
2018-Jan-04 06:28N 37°53' E 023°33'0 0.1
2018-Jan-04 05:58N 37°53' E 023°33'0 0.2
2018-Jan-04 05:28N 37°53' E 023°33'0 0.1
2018-Jan-04 05:00N 37°53' E 023°33'0 0.0
2018-Jan-04 04:28N 37°53' E 023°33'0 0.0
2018-Jan-04 04:01N 37°53' E 023°33'0 0.0
2018-Jan-04 03:31N 37°53' E 023°33'0 0.1
2018-Jan-04 02:58N 37°53' E 023°33'0 0.0
2018-Jan-04 02:28N 37°53' E 023°33'0 0.1
2018-Jan-04 02:00N 37°53' E 023°33'0 0.0
2018-Jan-04 01:28N 37°53' E 023°33'0 0.1
2018-Jan-04 01:00N 37°53' E 023°33'0 0.1
2018-Jan-04 00:27N 37°53' E 023°33'0 0.2
2018-Jan-03 23:57N 37°52' E 023°33'0 0.1
2018-Jan-03 23:31N 37°52' E 023°33'0 0.1
2018-Jan-03 23:01N 37°53' E 023°33'0 0.0
2018-Jan-03 22:28N 37°53' E 023°33'0 0.0
2018-Jan-03 21:58N 37°53' E 023°33'0 0.0
2018-Jan-03 21:31N 37°53' E 023°33'0 0.0
2018-Jan-03 20:58N 37°53' E 023°33'0 0.0
2018-Jan-03 20:28N 37°53' E 023°33'0 0.0
2018-Jan-03 19:57N 37°53' E 023°33'0 0.0
2018-Jan-03 19:30N 37°53' E 023°33'0 0.0
2018-Jan-03 19:00N 37°53' E 023°33'0 0.1
2018-Jan-03 18:30N 37°53' E 023°33'0 0.0
2018-Jan-03 18:00N 37°53' E 023°33'0 0.0
2018-Jan-03 17:30N 37°53' E 023°33'0 0.0
2018-Jan-03 17:00N 37°53' E 023°33'0 0.0
2018-Jan-03 16:30N 37°53' E 023°33'0 0.0
2018-Jan-03 16:00N 37°52' E 023°33'0 0.0
2018-Jan-03 15:28N 37°52' E 023°33'0 0.0
2018-Jan-03 15:01N 37°52' E 023°33'0 0.1
2018-Jan-03 14:30N 37°52' E 023°33'0 0.0
2018-Jan-03 14:00N 37°52' E 023°33'0 0.1
2018-Jan-03 13:30N 37°52' E 023°33'0 0.1
2018-Jan-03 13:00N 37°52' E 023°33'2 3.0
2018-Jan-03 12:30N 37°52' E 023°35'4 8.9
2018-Jan-03 12:00N 37°50' E 023°40'611.2
2018-Jan-03 11:30N 37°45' E 023°43'611.5
2018-Jan-03 11:00N 37°40' E 023°47'711.5
2018-Jan-03 10:22N 37°37' E 023°55'411.7
2018-Jan-03 10:01N 37°37' E 024°01'612.1
2018-Jan-03 09:30N 37°38' E 024°08'812.4
2018-Jan-03 08:50N 37°44' E 024°16'711.9
2018-Jan-03 08:14N 37°48' E 024°22'511.9
2018-Jan-03 07:48N 37°52' E 024°27'412.1
2018-Jan-03 07:30N 37°54' E 024°31'  

Dump ship's entire track history